createdAt,value
2022-10-01T00:02:09.790Z,12.47
2022-10-01T00:04:38.217Z,12.45
2022-10-01T00:07:10.629Z,12.41
2022-10-01T00:09:38.975Z,12.39
2022-10-01T00:12:07.356Z,12.40
2022-10-01T00:14:38.694Z,12.42
2022-10-01T00:17:06.625Z,12.44
2022-10-01T00:19:34.626Z,12.45
2022-10-01T00:22:02.697Z,12.47
2022-10-01T00:24:30.633Z,12.49
2022-10-01T00:26:59.155Z,12.49
2022-10-01T00:29:27.496Z,12.48
2022-10-01T00:31:55.776Z,12.45
2022-10-01T00:34:24.944Z,12.43
2022-10-01T00:36:52.858Z,12.40
2022-10-01T00:39:20.950Z,12.35
2022-10-01T00:41:49.974Z,12.33
2022-10-01T00:44:32.357Z,12.26
2022-10-01T00:47:16.177Z,12.19
2022-10-01T00:49:47.294Z,12.11
2022-10-01T00:52:20.972Z,12.05
2022-10-01T00:54:53.897Z,11.98
2022-10-01T00:57:25.345Z,11.93
2022-10-01T00:59:57.153Z,11.88
2022-10-01T01:02:25.232Z,11.83
2022-10-01T01:04:53.359Z,11.82
2022-10-01T01:07:22.482Z,11.83
2022-10-01T01:09:53.706Z,11.84
2022-10-01T01:12:51.118Z,11.86
2022-10-01T01:15:46.388Z,11.85
2022-10-01T01:18:28.220Z,11.87
2022-10-01T01:21:25.152Z,11.88
2022-10-01T01:23:53.108Z,11.88
2022-10-01T01:26:42.419Z,11.88
2022-10-01T01:29:27.375Z,11.89
2022-10-01T01:32:01.200Z,11.89
2022-10-01T01:34:33.454Z,11.87
2022-10-01T01:37:12.130Z,11.85
2022-10-01T01:39:46.258Z,11.86
2022-10-01T01:42:21.592Z,11.90
2022-10-01T01:44:51.852Z,11.91
2022-10-01T01:47:24.138Z,11.88
2022-10-01T01:49:53.438Z,11.83
2022-10-01T01:52:21.423Z,11.76
2022-10-01T01:54:51.388Z,11.70
2022-10-01T01:57:20.617Z,11.64
2022-10-01T01:59:49.111Z,11.56
2022-10-01T02:02:29.461Z,11.48
2022-10-01T02:05:03.595Z,11.42
2022-10-01T02:07:39.889Z,11.36
2022-10-01T02:10:46.592Z,11.33
2022-10-01T02:13:39.609Z,11.31
2022-10-01T02:16:23.917Z,11.30
2022-10-01T02:19:06.466Z,11.27
2022-10-01T02:22:08.725Z,11.25
2022-10-01T02:24:48.791Z,11.23
2022-10-01T02:27:30.506Z,11.21
2022-10-01T02:30:03.720Z,11.21
2022-10-01T02:32:32.652Z,11.19
2022-10-01T02:35:03.042Z,11.16
2022-10-01T02:37:31.144Z,11.16
2022-10-01T02:40:01.565Z,11.14
2022-10-01T02:42:31.390Z,11.14
2022-10-01T02:45:02.843Z,11.15
2022-10-01T02:47:34.495Z,11.16
2022-10-01T02:50:05.030Z,11.16
2022-10-01T02:52:36.148Z,11.15
2022-10-01T02:55:10.806Z,11.11
2022-10-01T02:57:39.970Z,11.10
2022-10-01T03:00:14.615Z,11.09
2022-10-01T03:02:43.025Z,11.04
2022-10-01T03:05:11.241Z,10.99
2022-10-01T03:07:41.111Z,10.94
2022-10-01T03:10:11.312Z,10.87
2022-10-01T03:12:45.523Z,10.83
2022-10-01T03:15:16.658Z,10.83
2022-10-01T03:17:45.270Z,10.83
2022-10-01T03:20:13.615Z,10.81
2022-10-01T03:22:44.441Z,10.82
2022-10-01T03:25:13.096Z,10.83
2022-10-01T03:27:41.426Z,10.83
2022-10-01T03:30:10.961Z,10.83
2022-10-01T03:32:39.208Z,10.86
2022-10-01T03:35:07.814Z,10.88
2022-10-01T03:37:36.092Z,10.92
2022-10-01T03:40:05.080Z,10.88
2022-10-01T03:42:33.309Z,10.84
2022-10-01T03:45:01.425Z,10.84
2022-10-01T03:47:29.502Z,10.84
2022-10-01T03:49:57.791Z,10.84
2022-10-01T03:52:25.930Z,10.84
2022-10-01T03:54:54.353Z,10.85
2022-10-01T03:57:22.496Z,10.78
2022-10-01T03:59:50.693Z,10.68
2022-10-01T04:02:19.633Z,10.63
2022-10-01T04:04:47.943Z,10.60
2022-10-01T04:07:16.268Z,10.60
2022-10-01T04:09:44.309Z,10.60
2022-10-01T04:12:12.696Z,10.59
2022-10-01T04:14:40.708Z,10.56
2022-10-01T04:17:08.981Z,10.57
2022-10-01T04:19:36.972Z,10.58
2022-10-01T04:22:05.056Z,10.56
2022-10-01T04:24:33.061Z,10.59
2022-10-01T04:27:01.116Z,10.61
2022-10-01T04:29:29.349Z,10.62
2022-10-01T04:31:58.382Z,10.61
2022-10-01T04:34:46.555Z,10.60
2022-10-01T04:37:14.582Z,10.56
2022-10-01T04:39:42.622Z,10.53
2022-10-01T04:42:10.817Z,10.51
2022-10-01T04:44:38.711Z,10.48
2022-10-01T04:47:07.868Z,10.44
2022-10-01T04:49:36.266Z,10.41
2022-10-01T04:52:04.917Z,10.42
2022-10-01T04:54:33.117Z,10.45
2022-10-01T04:57:01.255Z,10.54
2022-10-01T04:59:29.399Z,10.62
2022-10-01T05:01:57.671Z,10.66
2022-10-01T05:04:27.436Z,10.69
2022-10-01T05:06:56.263Z,10.74
2022-10-01T05:09:24.481Z,10.82
2022-10-01T05:11:52.677Z,10.85
2022-10-01T05:14:21.460Z,10.86
2022-10-01T05:16:49.602Z,10.90
2022-10-01T05:19:17.859Z,10.95
2022-10-01T05:21:46.467Z,11.02
2022-10-01T05:24:14.493Z,11.14
2022-10-01T05:26:42.901Z,11.22
2022-10-01T05:29:11.393Z,11.20
2022-10-01T05:31:42.185Z,11.20
2022-10-01T05:34:10.867Z,11.24
2022-10-01T05:36:38.888Z,11.33
2022-10-01T05:39:06.880Z,11.44
2022-10-01T05:41:35.375Z,11.53
2022-10-01T05:44:04.225Z,11.60
2022-10-01T05:46:32.857Z,11.65
2022-10-01T05:49:00.831Z,11.73
2022-10-01T05:51:29.645Z,11.79
2022-10-01T05:53:59.679Z,11.88
2022-10-01T05:56:28.488Z,11.97
2022-10-01T05:58:56.990Z,12.08
2022-10-01T06:01:25.115Z,12.12
2022-10-01T06:03:53.449Z,12.19
2022-10-01T06:06:26.279Z,12.50
2022-10-01T06:08:54.952Z,12.96
2022-10-01T06:11:24.375Z,13.44
2022-10-01T06:13:52.663Z,13.88
2022-10-01T06:16:21.062Z,14.39
2022-10-01T06:18:49.869Z,14.95
2022-10-01T06:21:17.809Z,15.46
2022-10-01T06:23:49.628Z,15.93
2022-10-01T06:26:18.615Z,16.39
2022-10-01T06:28:51.238Z,16.81
2022-10-01T06:31:20.034Z,17.23
2022-10-01T06:33:48.402Z,17.54
2022-10-01T06:36:16.627Z,17.79
2022-10-01T06:38:45.178Z,18.02
2022-10-01T06:41:14.274Z,18.21
2022-10-01T06:43:42.122Z,18.25
2022-10-01T06:46:11.328Z,17.99
2022-10-01T06:48:39.447Z,17.94
2022-10-01T06:51:08.686Z,18.00
2022-10-01T06:53:36.921Z,18.04
2022-10-01T06:56:07.151Z,17.84
2022-10-01T06:58:35.357Z,17.78
2022-10-01T07:01:04.088Z,17.89
2022-10-01T07:03:32.580Z,18.09
2022-10-01T07:06:03.033Z,18.27
2022-10-01T07:08:31.232Z,18.34
2022-10-01T07:11:02.975Z,18.42
2022-10-01T07:13:31.098Z,18.52
2022-10-01T07:15:59.173Z,18.54
2022-10-01T07:18:27.212Z,18.56
2022-10-01T07:20:59.683Z,18.52
2022-10-01T07:23:27.803Z,18.50
2022-10-01T07:25:56.101Z,18.46
2022-10-01T07:28:26.406Z,18.39
2022-10-01T07:31:11.653Z,18.47
2022-10-01T07:33:41.449Z,18.69
2022-10-01T07:36:12.027Z,18.83
2022-10-01T07:38:40.203Z,19.00
2022-10-01T07:41:08.285Z,18.95
2022-10-01T07:43:36.742Z,18.93
2022-10-01T07:46:05.781Z,19.04
2022-10-01T07:48:33.977Z,19.04
2022-10-01T07:51:02.176Z,18.92
2022-10-01T07:53:30.304Z,18.86
2022-10-01T07:56:02.659Z,18.90
2022-10-01T07:58:30.977Z,18.92
2022-10-01T08:01:03.969Z,18.96
2022-10-01T08:03:32.194Z,19.05
2022-10-01T08:06:00.261Z,19.19
2022-10-01T08:08:28.510Z,19.29
2022-10-01T08:10:57.100Z,19.28
2022-10-01T08:13:25.717Z,19.33
2022-10-01T08:15:55.074Z,19.41
2022-10-01T08:18:24.350Z,19.52
2022-10-01T08:20:52.793Z,19.53
2022-10-01T08:23:21.802Z,19.62
2022-10-01T08:25:50.698Z,19.73
2022-10-01T08:28:19.920Z,19.89
2022-10-01T08:30:48.669Z,20.11
2022-10-01T08:33:17.682Z,20.30
2022-10-01T08:35:46.002Z,20.47
2022-10-01T08:38:14.863Z,20.67
2022-10-01T08:40:52.168Z,20.80
2022-10-01T08:43:23.655Z,20.85
2022-10-01T08:46:00.815Z,20.93
2022-10-01T08:49:05.875Z,21.08
2022-10-01T08:51:47.214Z,21.33
2022-10-01T08:54:26.518Z,21.41
2022-10-01T08:56:58.271Z,21.42
2022-10-01T08:59:40.893Z,21.46
2022-10-01T09:02:20.051Z,21.51
2022-10-01T09:04:51.287Z,21.57
2022-10-01T09:07:51.897Z,21.66
2022-10-01T09:10:36.149Z,21.77
2022-10-01T09:13:16.222Z,21.89
2022-10-01T09:16:13.638Z,21.94
2022-10-01T09:19:10.972Z,21.94
2022-10-01T09:21:56.888Z,21.94
2022-10-01T09:24:44.684Z,21.95
2022-10-01T09:27:19.161Z,22.00
2022-10-01T09:30:01.297Z,22.02
2022-10-01T09:32:37.335Z,22.06
2022-10-01T09:35:31.737Z,22.08
2022-10-01T09:38:18.547Z,22.06
2022-10-01T09:40:53.130Z,22.10
2022-10-01T09:43:33.306Z,22.11
2022-10-01T09:46:04.971Z,22.13
2022-10-01T09:48:44.289Z,22.16
2022-10-01T09:51:19.290Z,22.14
2022-10-01T09:54:05.496Z,22.08
2022-10-01T09:56:44.792Z,22.03
2022-10-01T09:59:20.924Z,22.05
2022-10-01T10:01:53.876Z,22.07
2022-10-01T10:04:24.258Z,22.07
2022-10-01T10:07:05.419Z,22.10
2022-10-01T10:09:36.244Z,22.14
2022-10-01T10:12:10.063Z,22.17
2022-10-01T10:14:42.625Z,22.19
2022-10-01T10:17:19.397Z,22.25
2022-10-01T10:19:51.846Z,22.33
2022-10-01T10:22:25.125Z,22.45
2022-10-01T10:24:58.078Z,22.57
2022-10-01T10:27:29.318Z,22.60
2022-10-01T10:30:14.730Z,22.50
2022-10-01T10:32:44.929Z,22.46
2022-10-01T10:35:19.842Z,22.46
2022-10-01T10:37:54.220Z,22.49
2022-10-01T10:40:29.889Z,22.52
2022-10-01T10:42:59.831Z,22.57
2022-10-01T10:45:36.777Z,22.66
2022-10-01T10:48:12.043Z,22.76
2022-10-01T10:50:43.279Z,22.85
2022-10-01T10:53:19.995Z,22.96
2022-10-01T10:56:02.056Z,23.06
2022-10-01T10:58:33.609Z,23.20
2022-10-01T11:01:28.146Z,23.35
2022-10-01T11:04:01.643Z,23.54
2022-10-01T11:06:30.662Z,23.74
2022-10-01T11:09:07.761Z,23.91
2022-10-01T11:11:47.776Z,24.03
2022-10-01T11:14:46.482Z,24.03
2022-10-01T11:17:35.018Z,24.07
2022-10-01T11:20:25.422Z,24.19
2022-10-01T11:23:30.795Z,24.33
2022-10-01T11:26:18.232Z,24.52
2022-10-01T11:29:01.479Z,24.69
2022-10-01T11:31:43.718Z,24.81
2022-10-01T11:34:30.538Z,24.89
2022-10-01T11:37:24.431Z,24.98
2022-10-01T11:39:57.227Z,25.05
2022-10-01T11:42:35.156Z,25.09
2022-10-01T11:45:25.881Z,25.13
2022-10-01T11:48:00.785Z,25.13
2022-10-01T11:50:39.067Z,25.06
2022-10-01T11:53:25.274Z,25.05
2022-10-01T11:56:49.320Z,25.05
2022-10-01T11:59:50.062Z,24.88
2022-10-01T12:02:51.372Z,24.73
2022-10-01T12:05:25.211Z,24.65
2022-10-01T12:08:21.715Z,24.52
2022-10-01T12:11:18.045Z,24.40
2022-10-01T12:13:55.440Z,24.30
2022-10-01T12:16:45.601Z,24.29
2022-10-01T12:19:21.782Z,24.30
2022-10-01T12:22:46.100Z,24.30
2022-10-01T12:25:15.376Z,24.32
2022-10-01T12:27:54.740Z,24.34
2022-10-01T12:30:29.600Z,24.37
2022-10-01T12:33:22.697Z,24.39
2022-10-01T12:36:29.168Z,24.38
2022-10-01T12:39:24.101Z,24.37
2022-10-01T12:42:07.099Z,24.41
2022-10-01T12:44:39.227Z,24.45
2022-10-01T12:47:47.498Z,24.48
2022-10-01T12:50:49.438Z,24.47
2022-10-01T12:53:28.693Z,24.47
2022-10-01T12:56:12.061Z,24.49
2022-10-01T12:58:55.195Z,24.52
2022-10-01T13:01:50.100Z,24.58
2022-10-01T13:04:24.253Z,24.63
2022-10-01T13:07:19.687Z,24.64
2022-10-01T13:10:09.994Z,24.59
2022-10-01T13:13:02.085Z,24.57
2022-10-01T13:15:38.176Z,24.57
2022-10-01T13:18:27.763Z,24.65
2022-10-01T13:21:20.055Z,24.73
2022-10-01T13:23:57.677Z,24.78
2022-10-01T13:26:54.107Z,24.79
2022-10-01T13:29:51.246Z,24.80
2022-10-01T13:32:51.492Z,24.76
2022-10-01T13:35:32.852Z,24.73
2022-10-01T13:38:29.491Z,24.68
2022-10-01T13:41:04.879Z,24.55
2022-10-01T13:43:35.231Z,24.45
2022-10-01T13:46:11.533Z,24.37
2022-10-01T13:48:49.020Z,24.29
2022-10-01T13:51:17.637Z,24.21
2022-10-01T13:54:09.642Z,24.16
2022-10-01T13:56:38.790Z,24.14
2022-10-01T13:59:35.162Z,24.10
2022-10-01T14:02:30.660Z,24.09
2022-10-01T14:05:23.376Z,24.10
2022-10-01T14:07:59.616Z,24.05
2022-10-01T14:10:57.300Z,24.01
2022-10-01T14:13:47.145Z,23.94
2022-10-01T14:16:17.104Z,23.82
2022-10-01T14:18:49.726Z,23.74
2022-10-01T14:21:28.880Z,23.67
2022-10-01T14:24:14.933Z,23.63
2022-10-01T14:27:34.290Z,23.56
2022-10-01T14:30:20.834Z,23.46
2022-10-01T14:33:21.413Z,23.37
2022-10-01T14:36:04.714Z,23.27
2022-10-01T14:38:33.530Z,23.11
2022-10-01T14:41:02.205Z,23.02
2022-10-01T14:43:32.983Z,22.95
2022-10-01T14:46:07.481Z,22.89
2022-10-01T14:48:40.944Z,22.85
2022-10-01T14:51:31.905Z,22.79
2022-10-01T14:54:01.093Z,22.72
2022-10-01T14:56:29.977Z,22.63
2022-10-01T14:59:05.887Z,22.53
2022-10-01T15:01:34.943Z,22.45
2022-10-01T15:04:15.015Z,22.37
2022-10-01T15:06:44.342Z,22.30
2022-10-01T15:09:15.678Z,22.26
2022-10-01T15:11:47.799Z,22.18
2022-10-01T15:14:24.005Z,22.10
2022-10-01T15:16:52.847Z,22.02
2022-10-01T15:19:23.415Z,21.94
2022-10-01T15:21:55.519Z,21.86
2022-10-01T15:24:40.550Z,21.78
2022-10-01T15:27:11.437Z,21.69
2022-10-01T15:29:42.985Z,21.61
2022-10-01T15:32:18.665Z,21.53
2022-10-01T15:34:56.103Z,21.43
2022-10-01T15:37:35.229Z,21.33
2022-10-01T15:40:07.279Z,21.21
2022-10-01T15:42:36.687Z,21.09
2022-10-01T15:45:07.723Z,20.99
2022-10-01T15:47:37.950Z,20.91
2022-10-01T15:50:09.172Z,20.83
2022-10-01T15:53:06.818Z,20.75
2022-10-01T15:55:49.805Z,20.65
2022-10-01T15:58:31.830Z,20.57
2022-10-01T16:01:12.437Z,20.51
2022-10-01T16:03:55.179Z,20.46
2022-10-01T16:06:29.481Z,20.41
2022-10-01T16:09:06.620Z,20.39
2022-10-01T16:11:57.245Z,20.37
2022-10-01T16:14:41.063Z,20.35
2022-10-01T16:17:18.687Z,20.36
2022-10-01T16:19:53.387Z,20.35
2022-10-01T16:22:21.525Z,20.31
2022-10-01T16:24:52.872Z,20.27
2022-10-01T16:27:34.664Z,20.25
2022-10-01T16:30:12.597Z,20.21
2022-10-01T16:32:41.250Z,20.21
2022-10-01T16:35:21.877Z,20.22
2022-10-01T16:37:53.130Z,20.19
2022-10-01T16:40:25.522Z,20.12
2022-10-01T16:42:54.687Z,19.96
2022-10-01T16:45:25.478Z,19.77
2022-10-01T16:47:56.921Z,19.54
2022-10-01T16:50:25.968Z,19.31
2022-10-01T16:52:56.365Z,19.12
2022-10-01T16:55:37.962Z,18.92
2022-10-01T16:58:07.216Z,18.74
2022-10-01T17:00:37.711Z,18.55
2022-10-01T17:03:09.490Z,18.37
2022-10-01T17:05:38.067Z,18.24
2022-10-01T17:08:11.542Z,18.13
2022-10-01T17:10:44.230Z,18.06
2022-10-01T17:13:14.259Z,17.99
2022-10-01T17:15:43.581Z,17.88
2022-10-01T17:18:12.367Z,17.74
2022-10-01T17:20:40.662Z,17.47
2022-10-01T17:23:12.494Z,17.13
2022-10-01T17:25:41.562Z,16.89
2022-10-01T17:28:16.066Z,16.76
2022-10-01T17:30:46.719Z,16.62
2022-10-01T17:33:16.801Z,16.51
2022-10-01T17:35:51.845Z,16.40
2022-10-01T17:38:21.165Z,16.28
2022-10-01T17:40:55.703Z,16.13
2022-10-01T17:43:25.277Z,16.03
2022-10-01T17:46:01.411Z,15.96
2022-10-01T17:48:30.504Z,15.86
2022-10-01T17:51:07.489Z,15.78
2022-10-01T17:53:42.303Z,15.68
2022-10-01T17:56:17.115Z,15.55
2022-10-01T17:58:46.323Z,15.42
2022-10-01T18:01:20.048Z,15.30
2022-10-01T18:03:56.275Z,15.24
2022-10-01T18:06:28.035Z,15.16
2022-10-01T18:08:57.234Z,15.08
2022-10-01T18:11:30.490Z,15.06
2022-10-01T18:14:00.470Z,15.02
2022-10-01T18:16:29.238Z,14.95
2022-10-01T18:21:48.696Z,14.91
2022-10-01T18:24:17.840Z,14.86
2022-10-01T18:26:45.991Z,14.85
2022-10-01T18:29:24.337Z,14.82
2022-10-01T18:32:02.643Z,14.78
2022-10-01T18:34:39.820Z,14.76
2022-10-01T18:37:23.387Z,14.75
2022-10-01T18:40:15.421Z,14.70
2022-10-01T18:42:49.646Z,14.64
2022-10-01T18:45:43.420Z,14.57
2022-10-01T18:48:17.626Z,14.60
2022-10-01T18:50:55.173Z,14.61
2022-10-01T18:53:23.467Z,14.62
2022-10-01T18:56:02.767Z,14.61
2022-10-01T18:58:43.483Z,14.57
2022-10-01T19:01:41.926Z,14.56
2022-10-01T19:04:40.727Z,14.59
2022-10-01T19:07:43.790Z,14.58
2022-10-01T19:10:31.491Z,14.62
2022-10-01T19:13:12.043Z,14.67
2022-10-01T19:15:59.903Z,14.73
2022-10-01T19:18:55.220Z,14.73
2022-10-01T19:21:33.629Z,14.69
2022-10-01T19:24:01.876Z,14.69
2022-10-01T19:26:47.038Z,14.65
2022-10-01T19:29:21.613Z,14.58
2022-10-01T19:32:03.207Z,14.55
2022-10-01T19:34:35.155Z,14.56
2022-10-01T19:37:29.836Z,14.58
2022-10-01T19:40:05.656Z,14.60
2022-10-01T19:42:39.983Z,14.64
2022-10-01T19:45:30.843Z,14.68
2022-10-01T19:48:16.101Z,14.75
2022-10-01T19:50:51.173Z,14.81
2022-10-01T19:53:30.873Z,14.85
2022-10-01T19:56:01.512Z,14.83
2022-10-01T19:58:30.806Z,14.80
2022-10-01T20:01:02.702Z,14.80
2022-10-01T20:03:30.661Z,14.80
2022-10-01T20:06:10.516Z,14.80
2022-10-01T20:08:53.014Z,14.79
2022-10-01T20:11:32.006Z,14.77
2022-10-01T20:14:41.179Z,14.75
2022-10-01T20:17:48.388Z,14.72
2022-10-01T20:20:25.599Z,14.69
2022-10-01T20:23:12.008Z,14.68
2022-10-01T20:25:58.168Z,14.67
2022-10-01T20:29:04.700Z,14.70
2022-10-01T20:32:09.912Z,14.72
2022-10-01T20:34:59.098Z,14.73
2022-10-01T20:37:38.854Z,14.72
2022-10-01T20:40:18.408Z,14.66
2022-10-01T20:42:50.906Z,14.63
2022-10-01T20:45:23.949Z,14.65
2022-10-01T20:48:01.518Z,14.64
2022-10-01T20:50:39.982Z,14.65
2022-10-01T20:53:25.020Z,14.66
2022-10-01T20:56:01.737Z,14.66
2022-10-01T20:58:35.054Z,14.66
2022-10-01T21:01:17.214Z,14.64
2022-10-01T21:04:07.790Z,14.63
2022-10-01T21:06:42.521Z,14.64
2022-10-01T21:09:21.101Z,14.66
2022-10-01T21:11:59.262Z,14.63
2022-10-01T21:14:35.762Z,14.59
2022-10-01T21:17:19.689Z,14.57
2022-10-01T21:20:15.615Z,14.59
2022-10-01T21:23:14.183Z,14.66
2022-10-01T21:25:57.192Z,14.74
2022-10-01T21:28:37.275Z,14.78
2022-10-01T21:31:23.889Z,14.81
2022-10-01T21:34:09.557Z,14.84
2022-10-01T21:36:38.841Z,14.87
2022-10-01T21:39:41.449Z,14.89
2022-10-01T21:42:12.209Z,14.85
2022-10-01T21:45:08.003Z,14.84
2022-10-01T21:47:54.701Z,14.84
2022-10-01T21:50:51.749Z,14.78
2022-10-01T21:53:50.536Z,14.75
2022-10-01T21:56:38.754Z,14.72
2022-10-01T21:59:22.339Z,14.64
2022-10-01T22:02:14.968Z,14.57
2022-10-01T22:05:23.644Z,14.54
2022-10-01T22:07:58.538Z,14.55
2022-10-01T22:10:33.715Z,14.53
2022-10-01T22:13:03.625Z,14.47
2022-10-01T22:15:41.990Z,14.42
2022-10-01T22:18:35.739Z,14.42
2022-10-01T22:21:20.854Z,14.45
2022-10-01T22:23:58.125Z,14.46
2022-10-01T22:26:31.726Z,14.49
2022-10-01T22:29:02.180Z,14.53
2022-10-01T22:31:35.897Z,14.54
2022-10-01T22:34:15.476Z,14.50
2022-10-01T22:37:08.669Z,14.45
2022-10-01T22:39:42.664Z,14.41
2022-10-01T22:42:24.389Z,14.39
2022-10-01T22:44:53.255Z,14.37
2022-10-01T22:47:38.212Z,14.35
2022-10-01T22:50:20.143Z,14.37
2022-10-01T22:53:37.857Z,14.39
2022-10-01T22:56:06.742Z,14.43
2022-10-01T22:59:10.326Z,14.50
2022-10-01T23:01:44.081Z,14.55
2022-10-01T23:04:15.265Z,14.58
2022-10-01T23:06:58.166Z,14.58
2022-10-01T23:09:29.030Z,14.62
2022-10-01T23:12:20.076Z,14.64
2022-10-01T23:15:14.996Z,14.65
2022-10-01T23:17:59.614Z,14.70
2022-10-01T23:20:32.572Z,14.67
2022-10-01T23:23:10.930Z,14.60
2022-10-01T23:25:59.434Z,14.57
2022-10-01T23:28:36.459Z,14.53
2022-10-01T23:31:36.814Z,14.51
2022-10-01T23:34:22.675Z,14.47
2022-10-01T23:37:10.935Z,14.46
2022-10-01T23:40:13.448Z,14.45
2022-10-01T23:42:48.939Z,14.50
2022-10-01T23:45:26.344Z,14.54
2022-10-01T23:48:23.542Z,14.56
2022-10-01T23:51:02.398Z,14.59
2022-10-01T23:54:08.889Z,14.63
2022-10-01T23:56:50.208Z,14.61
2022-10-01T23:59:39.355Z,14.58
